Time;durP1;ratioP1;P1;durP2;ratioP2;P2;SDS_P1;SDS_P2;PMS_P1;PMS_P2;Temp;Humidity;BMP_temperature;BMP_pressure;BME280_temperature;BME280_humidity;BME280_pressure;Samples;Min_cycle;Max_cycle;Signal;HPM_P1;HPM_P2
2021/03/21 00:01:05;;;;;;;18.90;9.05;;;;;;;-1.82;80.90;99583.13;3551285;27;20046;-51
2021/03/21 00:02:47;;;;;;;18.88;8.00;;;;;;;-1.83;80.75;99577.16;3550268;27;20165;-49
2021/03/21 00:04:29;;;;;;;21.48;10.20;;;;;;;-1.83;80.78;99583.91;3550786;27;20520;-50
2021/03/21 00:06:11;;;;;;;19.50;9.75;;;;;;;-1.84;81.13;99582.16;3548954;27;20039;-49
2021/03/21 00:07:57;;;;;;;25.50;11.20;;;;;;;-1.84;81.37;99584.69;3553599;27;20046;-48
2021/03/21 00:09:39;;;;;;;19.80;9.75;;;;;;;-1.86;81.50;99582.94;3553606;27;20074;-48
2021/03/21 00:11:20;;;;;;;19.05;9.13;;;;;;;-1.87;81.52;99580.31;3556683;27;20111;-49
2021/03/21 00:13:03;;;;;;;18.98;7.57;;;;;;;-1.86;81.08;99577.88;3553927;27;20047;-50
2021/03/21 00:14:44;;;;;;;22.85;9.77;;;;;;;-1.83;81.33;99576.28;3554665;27;20422;-49
2021/03/21 00:16:25;;;;;;;23.48;9.70;;;;;;;-1.82;81.26;99572.94;3555988;27;20050;-49
2021/03/21 00:18:07;;;;;;;21.50;9.45;;;;;;;-1.82;81.36;99575.50;3553490;27;20137;-51
2021/03/21 00:19:48;;;;;;;24.60;10.27;;;;;;;-1.83;81.37;99566.13;3557213;27;20085;-48
2021/03/21 00:21:30;;;;;;;21.17;9.20;;;;;;;-1.85;81.40;99568.56;3553534;27;20057;-50
2021/03/21 00:23:11;;;;;;;28.42;10.20;;;;;;;-1.84;81.51;99574.53;3556581;27;20145;-52
2021/03/21 00:24:53;;;;;;;23.58;9.93;;;;;;;-1.87;81.66;99565.94;3556048;27;20050;-49
2021/03/21 00:26:35;;;;;;;23.95;9.68;;;;;;;-1.88;81.76;99568.38;3554757;27;20424;-49
2021/03/21 00:28:19;;;;;;;17.00;9.07;;;;;;;-1.89;81.50;99566.63;3554791;27;20046;-49
2021/03/21 00:30:00;;;;;;;20.20;8.40;;;;;;;-1.90;81.50;99562.31;3554930;27;20051;-49
2021/03/21 00:31:42;;;;;;;23.10;11.23;;;;;;;-1.90;81.66;99565.72;3556843;27;20054;-49
2021/03/21 00:33:25;;;;;;;20.80;10.15;;;;;;;-1.93;81.58;99562.13;3553463;27;20046;-52
2021/03/21 00:35:08;;;;;;;16.67;8.45;;;;;;;-1.91;81.64;99563.09;3556804;27;20103;-52
2021/03/21 00:36:49;;;;;;;20.50;10.32;;;;;;;-1.92;81.43;99564.78;3557110;27;20430;-49
2021/03/21 00:38:33;;;;;;;19.67;8.95;;;;;;;-1.93;81.64;99568.13;3555699;27;21202;-49
2021/03/21 00:40:19;;;;;;;16.33;9.35;;;;;;;-1.92;81.62;99562.22;3556782;27;20042;-50
2021/03/21 00:42:01;;;;;;;14.82;8.77;;;;;;;-1.94;81.54;99558.72;3554741;27;20079;-50
2021/03/21 00:43:42;;;;;;;18.77;9.23;;;;;;;-1.94;81.64;99560.38;3556755;27;20053;-49
2021/03/21 00:45:25;;;;;;;14.10;7.95;;;;;;;-1.94;81.50;99561.25;3553227;27;20091;-49
2021/03/21 00:47:07;;;;;;;20.23;9.73;;;;;;;-1.95;81.69;99556.94;3555884;27;20507;-50
2021/03/21 00:48:48;;;;;;;21.45;10.68;;;;;;;-1.97;81.25;99558.53;3556818;27;20050;-52
2021/03/21 00:50:32;;;;;;;15.15;7.95;;;;;;;-1.99;81.29;99556.69;3554072;27;20050;-51
2021/03/21 00:52:13;;;;;;;17.77;8.75;;;;;;;-1.98;81.48;99555.88;3554314;27;20099;-49
2021/03/21 00:53:54;;;;;;;21.30;10.40;;;;;;;-1.99;81.83;99559.22;3553463;27;20082;-49
2021/03/21 00:55:37;;;;;;;18.20;9.40;;;;;;;-2.00;81.61;99557.47;3556881;27;20503;-50
2021/03/21 00:57:18;;;;;;;14.85;8.57;;;;;;;-2.05;81.63;99560.59;3553037;27;20051;-48
2021/03/21 00:58:59;;;;;;;21.08;9.40;;;;;;;-2.06;81.73;99555.41;3555739;27;20047;-48
2021/03/21 01:00:44;;;;;;;18.58;9.38;;;;;;;-2.09;81.82;99555.22;3554440;27;20074;-50
2021/03/21 01:02:26;;;;;;;18.63;9.02;;;;;;;-2.12;81.76;99558.47;3553379;27;20043;-49
2021/03/21 01:04:07;;;;;;;25.45;10.20;;;;;;;-2.14;81.87;99557.50;3555585;27;20050;-48
2021/03/21 01:05:51;;;;;;;22.17;10.88;;;;;;;-2.15;82.13;99557.41;3552906;27;20043;-48
2021/03/21 01:07:33;;;;;;;20.20;8.93;;;;;;;-2.17;81.92;99554.75;3556760;27;20343;-49
2021/03/21 01:09:15;;;;;;;20.35;9.75;;;;;;;-2.16;82.29;99558.16;3555668;27;20087;-50
2021/03/21 01:10:59;;;;;;;26.60;10.57;;;;;;;-2.17;82.64;99556.44;3555176;27;20074;-48
2021/03/21 01:12:40;;;;;;;20.20;9.80;;;;;;;-2.17;82.72;99552.22;3556620;27;20046;-49
2021/03/21 01:14:22;;;;;;;22.70;9.82;;;;;;;-2.17;82.83;99559.84;3551709;27;20043;-49
2021/03/21 01:16:06;;;;;;;22.40;10.10;;;;;;;-2.15;82.87;99549.78;3557020;27;20057;-50
2021/03/21 01:17:53;;;;;;;23.58;10.90;;;;;;;-2.16;82.90;99548.91;3555375;27;20114;-48
2021/03/21 01:19:34;;;;;;;20.02;9.02;;;;;;;-2.16;82.91;99550.56;3554007;27;20051;-49
2021/03/21 01:21:16;;;;;;;26.17;11.77;;;;;;;-2.17;82.67;99556.44;3551267;27;20054;-50
2021/03/21 01:22:58;;;;;;;17.15;8.65;;;;;;;-2.16;82.68;99555.63;3552224;27;20053;-48
2021/03/21 01:24:40;;;;;;;15.70;8.32;;;;;;;-2.16;82.76;99553.09;3552657;27;20419;-50
2021/03/21 01:26:25;;;;;;;18.10;8.75;;;;;;;-2.18;82.73;99550.44;3550374;27;20050;-49
2021/03/21 01:28:18;;;;;;;17.48;7.93;;;;;;;-2.20;82.38;99543.53;3554407;27;20074;-50
2021/03/21 01:30:00;;;;;;;19.55;9.48;;;;;;;-2.21;82.73;99549.38;3550490;27;20054;-50
2021/03/21 01:31:41;;;;;;;19.15;9.80;;;;;;;-2.22;82.81;99555.25;3552634;27;20083;-49
2021/03/21 01:33:25;;;;;;;26.85;10.75;;;;;;;-2.25;82.96;99548.31;3551579;27;20050;-50
2021/03/21 01:35:08;;;;;;;36.92;12.88;;;;;;;-2.29;82.94;99547.25;3550770;27;20046;-49
2021/03/21 01:36:49;;;;;;;20.30;8.88;;;;;;;-2.30;82.99;99544.59;3553997;27;20456;-50
2021/03/21 01:38:31;;;;;;;51.33;11.05;;;;;;;-2.31;83.24;99542.88;3550379;27;20527;-49
2021/03/21 01:40:15;;;;;;;21.90;10.45;;;;;;;-2.32;83.55;99552.16;3553973;27;20157;-49
2021/03/21 01:42:01;;;;;;;22.50;10.32;;;;;;;-2.34;83.46;99542.66;3551424;27;20051;-50
2021/03/21 01:43:42;;;;;;;29.30;11.13;;;;;;;-2.35;83.31;99544.34;3552845;27;20447;-48
2021/03/21 01:45:33;;;;;;;25.13;8.73;;;;;;;-2.37;82.75;99548.44;3553646;27;20446;-49
2021/03/21 01:47:27;;;;;;;20.67;8.73;;;;;;;-2.36;83.05;99547.66;3552311;27;20415;-49
2021/03/21 01:49:16;;;;;;;17.40;9.07;;;;;;;-2.37;82.79;99545.91;3553989;27;20058;-48
2021/03/21 01:51:01;;;;;;;18.67;9.98;;;;;;;-2.36;83.17;99545.09;3550818;27;20051;-50
2021/03/21 01:52:42;;;;;;;21.08;9.32;;;;;;;-2.39;83.09;99544.03;3550818;27;20495;-52
2021/03/21 01:54:25;;;;;;;24.00;10.23;;;;;;;-2.39;83.44;99539.81;3553607;27;20049;-50
2021/03/21 01:56:10;;;;;;;17.03;8.53;;;;;;;-2.42;83.35;99532.03;3550371;27;20047;-48
2021/03/21 01:57:52;;;;;;;15.45;8.20;;;;;;;-2.42;83.69;99537.13;3554007;27;20313;-50
2021/03/21 01:59:35;;;;;;;18.23;8.30;;;;;;;-2.44;83.65;99534.47;3550042;27;20567;-49
2021/03/21 02:01:22;;;;;;;17.90;8.88;;;;;;;-2.47;83.64;99533.41;3552810;27;20107;-51
2021/03/21 02:03:04;;;;;;;18.38;8.15;;;;;;;-2.49;83.81;99534.97;3551505;27;20046;-50
2021/03/21 02:04:46;;;;;;;18.98;7.95;;;;;;;-2.51;83.98;99539.97;3551385;27;20042;-49
2021/03/21 02:06:48;;;;;;;17.33;8.35;;;;;;;-2.51;83.94;99532.34;3553700;27;20058;-50
2021/03/21 02:08:45;;;;;;;17.08;8.10;;;;;;;-2.52;83.98;99529.69;3550032;27;20046;-49
2021/03/21 02:10:34;;;;;;;15.35;7.47;;;;;;;-2.52;83.71;99527.16;3551572;27;20043;-48
2021/03/21 02:12:40;;;;;;;20.45;8.80;;;;;;;-2.53;84.04;99523.75;3552315;27;20419;-49
2021/03/21 02:14:32;;;;;;;16.15;9.15;;;;;;;-2.55;84.07;99520.22;3548552;27;20043;-52
2021/03/21 02:16:20;;;;;;;17.23;8.45;;;;;;;-2.57;83.93;99524.31;3551560;27;20423;-53
2021/03/21 02:18:13;;;;;;;16.83;7.78;;;;;;;-2.57;83.94;99520.91;3553526;27;20362;-49
2021/03/21 02:20:21;;;;;;;12.50;6.35;;;;;;;-2.59;83.97;99522.47;3549892;27;20500;-48
2021/03/21 02:22:07;;;;;;;19.38;9.25;;;;;;;-2.59;84.13;99522.47;3552684;27;20083;-49
2021/03/21 02:24:42;;;;;;;18.83;8.85;;;;;;;-2.61;84.49;99522.38;3551797;27;20449;-51
2021/03/21 02:26:43;;;;;;;18.83;8.45;;;;;;;-2.65;84.26;99525.50;3549791;27;20055;-49
2021/03/21 02:28:45;;;;;;;15.10;8.00;;;;;;;-2.69;84.19;99514.28;3549981;27;20054;-53
2021/03/21 02:30:33;;;;;;;15.32;7.78;;;;;;;-2.72;84.57;99515.75;3539376;28;20054;-49
2021/03/21 02:32:20;;;;;;;18.17;8.65;;;;;;;-2.74;84.36;99513.13;3549503;27;20108;-49
2021/03/21 02:34:06;;;;;;;14.68;7.53;;;;;;;-2.76;84.80;99506.16;3551406;27;20051;-49
2021/03/21 02:35:53;;;;;;;16.25;7.75;;;;;;;-2.79;84.53;99503.44;3552117;27;20049;-53
2021/03/21 02:37:42;;;;;;;17.73;8.60;;;;;;;-2.83;84.81;99505.78;3549733;27;20072;-54
2021/03/21 02:39:29;;;;;;;14.30;7.07;;;;;;;-2.86;84.77;99503.06;3553481;27;20415;-53
2021/03/21 02:41:17;;;;;;;14.10;7.35;;;;;;;-2.88;85.02;99502.09;3552295;27;20050;-55
2021/03/21 02:43:04;;;;;;;17.25;7.85;;;;;;;-2.89;85.10;99505.38;3551758;27;20042;-55
2021/03/21 02:44:52;;;;;;;17.17;8.27;;;;;;;-2.93;85.01;99500.03;3562931;27;20057;-55
2021/03/21 02:46:38;;;;;;;11.82;6.47;;;;;;;-2.91;84.90;99498.47;3557756;27;20104;-55
2021/03/21 02:48:25;;;;;;;15.27;6.93;;;;;;;-2.93;85.08;99497.50;3553312;27;20142;-53
2021/03/21 02:50:16;;;;;;;14.80;7.20;;;;;;;-2.93;84.85;99500.03;3549933;27;20098;-55
2021/03/21 02:52:02;;;;;;;12.35;6.03;;;;;;;-2.97;85.21;99496.44;3552225;27;20047;-56
2021/03/21 02:53:47;;;;;;;17.17;7.55;;;;;;;-2.99;85.05;99495.41;3553872;27;20054;-54
2021/03/21 02:55:32;;;;;;;13.30;7.40;;;;;;;-3.00;85.19;99493.69;3549421;27;20304;-54
2021/03/21 02:57:18;;;;;;;15.25;7.30;;;;;;;-3.02;85.24;99493.56;3553482;27;20053;-54
2021/03/21 02:59:05;;;;;;;16.60;10.00;;;;;;;-3.04;85.39;99490.06;3551654;27;20054;-54
2021/03/21 03:00:50;;;;;;;17.63;7.85;;;;;;;-3.08;85.54;99490.63;3550910;27;20043;-53
2021/03/21 03:02:36;;;;;;;15.15;6.68;;;;;;;-3.09;85.51;99491.44;3550560;27;20414;-55
2021/03/21 03:04:23;;;;;;;16.67;8.32;;;;;;;-3.10;85.51;99484.59;3550429;27;20103;-55
2021/03/21 03:06:09;;;;;;;17.95;8.55;;;;;;;-3.12;85.41;99480.22;3553180;27;20530;-54
2021/03/21 03:07:55;;;;;;;17.98;8.77;;;;;;;-3.16;85.43;99484.22;3551615;27;20042;-53
2021/03/21 03:09:43;;;;;;;14.90;7.50;;;;;;;-3.17;85.60;99482.44;3551483;27;20054;-54
2021/03/21 03:11:34;;;;;;;20.05;9.57;;;;;;;-3.17;86.17;99484.97;3551352;27;20050;-55
2021/03/21 03:13:21;;;;;;;19.88;9.35;;;;;;;-3.18;86.09;99490.84;3550237;27;20550;-55
2021/03/21 03:15:05;;;;;;;21.40;9.40;;;;;;;-3.21;86.16;99494.03;3553300;27;20055;-54
2021/03/21 03:16:53;;;;;;;23.65;10.23;;;;;;;-3.23;86.44;99490.53;3551363;27;20461;-55
2021/03/21 03:18:40;;;;;;;20.55;9.80;;;;;;;-3.26;86.37;99490.31;3550728;27;20047;-54
2021/03/21 03:20:32;;;;;;;20.48;9.52;;;;;;;-3.27;86.64;99488.59;3551876;27;20050;-55
2021/03/21 03:22:20;;;;;;;21.58;10.27;;;;;;;-3.28;86.71;99489.34;3549475;27;20112;-55
2021/03/21 03:24:06;;;;;;;21.88;10.35;;;;;;;-3.30;86.45;99490.03;3552960;27;20618;-55
2021/03/21 03:25:53;;;;;;;27.80;10.38;;;;;;;-3.34;86.62;99483.91;3551262;27;20039;-54
2021/03/21 03:27:39;;;;;;;20.80;9.85;;;;;;;-3.35;86.55;99482.13;3550675;27;20049;-53
2021/03/21 03:29:25;;;;;;;24.52;10.52;;;;;;;-3.37;86.79;99486.22;3552709;27;20078;-53
2021/03/21 03:31:14;;;;;;;22.85;10.95;;;;;;;-3.38;86.67;99485.34;3547975;27;20081;-53
2021/03/21 03:32:55;;;;;;;30.00;11.40;;;;;;;-3.39;87.07;99475.09;3552770;27;20077;-55
2021/03/21 03:34:38;;;;;;;27.35;11.82;;;;;;;-3.39;86.96;99482.72;3549099;27;20161;-55
2021/03/21 03:36:20;;;;;;;31.50;13.27;;;;;;;-3.40;86.99;99484.34;3550705;27;20050;-55
2021/03/21 03:38:04;;;;;;;23.60;10.82;;;;;;;-3.41;87.35;99476.66;3551185;27;20538;-54
2021/03/21 03:39:45;;;;;;;;;;;;;;;-3.42;87.17;99478.31;3551120;27;20587;-53
2021/03/21 03:41:39;;;;;;;32.20;13.05;;;;;;;-3.43;87.19;99478.19;3552134;27;19958;-55
2021/03/21 03:43:31;;;;;;;39.53;14.55;;;;;;;-3.47;87.00;99466.97;3550783;27;20042;-55
2021/03/21 03:45:22;;;;;;;36.75;13.85;;;;;;;-3.48;87.39;99469.41;3551068;27;20392;-54
2021/03/21 03:47:12;;;;;;;34.35;14.43;;;;;;;-3.50;87.27;99463.38;3552706;27;20046;-55
2021/03/21 03:49:01;;;;;;;36.38;14.40;;;;;;;-3.52;87.64;99464.91;3550091;27;20444;-54
2021/03/21 03:50:53;;;;;;;33.67;13.20;;;;;;;-3.52;87.41;99467.47;3552428;27;20054;-54
2021/03/21 03:52:52;;;;;;;39.38;14.27;;;;;;;-3.53;87.50;99473.31;3548394;27;20095;-55
2021/03/21 03:54:36;;;;;;;31.73;13.15;;;;;;;-3.55;87.49;99463.09;3549154;27;20046;-54
2021/03/21 03:56:22;;;;;;;28.70;11.75;;;;;;;-3.57;87.66;99462.06;3552444;27;20046;-55
2021/03/21 03:58:08;;;;;;;33.40;11.88;;;;;;;-3.57;87.76;99459.53;3551251;27;20070;-55
2021/03/21 04:00:07;;;;;;;29.58;11.35;;;;;;;-3.58;87.70;99461.19;3552157;27;20061;-56
2021/03/21 04:01:52;;;;;;;23.98;10.82;;;;;;;-3.58;88.07;99453.59;3552591;27;20076;-55
2021/03/21 04:03:41;;;;;;;24.73;10.95;;;;;;;-3.55;87.85;99459.63;3548852;27;20449;-55
2021/03/21 04:05:32;;;;;;;25.55;10.48;;;;;;;-3.55;87.96;99459.63;3538145;28;20504;-54
2021/03/21 04:07:24;;;;;;;21.40;10.32;;;;;;;-3.55;87.96;99457.09;3550468;27;20046;-55
2021/03/21 04:09:16;;;;;;;23.77;10.40;;;;;;;-3.55;87.92;99460.53;3550451;27;20051;-55
2021/03/21 04:11:03;;;;;;;26.83;10.60;;;;;;;-3.55;88.10;99458.00;3552093;27;20046;-56
2021/03/21 04:13:00;;;;;;;26.98;10.52;;;;;;;-3.56;87.92;99461.31;3548630;27;20108;-55
2021/03/21 04:14:46;;;;;;;24.58;10.68;;;;;;;-3.55;88.03;99462.19;3538246;27;20051;-56
2021/03/21 04:16:32;;;;;;;21.23;9.05;;;;;;;-3.53;87.73;99458.13;3549405;27;20043;-56
2021/03/21 04:18:20;;;;;;;23.88;10.85;;;;;;;-3.51;87.83;99465.03;3549197;27;20051;-56
2021/03/21 04:20:08;;;;;;;21.33;9.30;;;;;;;-3.51;87.79;99461.63;3551951;27;20055;-56
2021/03/21 04:21:55;;;;;;;21.38;9.77;;;;;;;-3.52;87.75;99458.19;3549749;27;20057;-55
2021/03/21 04:23:41;;;;;;;22.00;8.80;;;;;;;-3.49;87.92;99458.41;3551874;27;20061;-56
2021/03/21 04:25:27;;;;;;;15.35;8.35;;;;;;;-3.47;88.03;99461.03;3549607;27;20051;-55
2021/03/21 04:27:17;;;;;;;20.77;10.20;;;;;;;-3.45;87.80;99459.47;3548904;27;20054;-56
2021/03/21 04:29:05;;;;;;;20.15;10.60;;;;;;;-3.41;87.87;99459.78;3537922;28;20073;-55
2021/03/21 04:30:50;;;;;;;19.45;8.23;;;;;;;-3.35;87.62;99456.75;3545975;27;20057;-49
2021/03/21 04:32:36;;;;;;;21.95;9.38;;;;;;;-3.27;87.46;99457.25;3552030;27;20080;-56
2021/03/21 04:34:20;;;;;;;20.23;10.63;;;;;;;-3.19;87.51;99456.97;3552361;27;20099;-56
2021/03/21 04:36:07;;;;;;;18.77;10.02;;;;;;;-3.13;87.39;99456.50;3551886;27;20054;-56
2021/03/21 04:37:55;;;;;;;16.30;8.68;;;;;;;-3.06;87.14;99451.03;3551696;27;20042;-49
2021/03/21 04:39:40;;;;;;;22.48;10.30;;;;;;;-3.00;86.91;99451.41;3548433;27;20050;-49
2021/03/21 04:41:26;;;;;;;20.98;9.13;;;;;;;-2.94;86.81;99447.50;3551648;27;20054;-48
2021/03/21 04:43:12;;;;;;;21.55;9.93;;;;;;;-2.89;86.70;99447.00;3549382;27;20112;-48
2021/03/21 04:45:04;;;;;;;17.90;7.05;;;;;;;-2.83;86.28;99443.97;3549266;27;20056;-49
2021/03/21 04:46:50;;;;;;;19.85;8.52;;;;;;;-2.77;86.28;99448.59;3551572;27;20065;-49
2021/03/21 04:48:32;;;;;;;18.92;9.77;;;;;;;-2.73;86.13;99443.78;3550634;27;20054;-49
2021/03/21 04:50:16;;;;;;;15.10;7.95;;;;;;;-2.67;85.84;99439.09;3551769;27;20058;-49
2021/03/21 04:52:06;;;;;;;17.77;8.68;;;;;;;-2.61;85.78;99441.13;3548861;27;20442;-48
2021/03/21 04:53:50;;;;;;;14.75;7.40;;;;;;;-2.55;85.76;99449.09;3548555;27;20479;-48
2021/03/21 04:55:38;;;;;;;15.00;7.30;;;;;;;-2.51;85.45;99440.91;3553236;27;20057;-49
2021/03/21 04:57:31;;;;;;;16.15;7.97;;;;;;;-2.43;85.37;99441.38;3550965;27;20051;-49
2021/03/21 04:59:18;;;;;;;15.70;8.35;;;;;;;-2.37;84.79;99441.78;3554135;27;20046;-49
2021/03/21 05:01:06;;;;;;;15.73;7.05;;;;;;;-2.30;84.66;99445.53;3552432;27;20057;-55
2021/03/21 05:02:53;;;;;;;18.27;8.45;;;;;;;-2.25;84.35;99439.97;3551651;27;20098;-56
2021/03/21 05:04:40;;;;;;;16.25;8.77;;;;;;;-2.18;84.49;99437.78;3540098;28;20705;-56
2021/03/21 05:06:34;;;;;;;15.52;8.05;;;;;;;-2.13;83.97;99447.44;3548228;27;20051;-49
2021/03/21 05:08:22;;;;;;;14.30;8.23;;;;;;;-2.10;83.53;99437.47;3552882;27;20134;-48
2021/03/21 05:10:13;;;;;;;18.88;8.90;;;;;;;-2.03;83.86;99442.94;3552745;27;20088;-49
2021/03/21 05:12:05;;;;;;;17.42;8.40;;;;;;;-2.00;83.40;99436.34;3551739;27;20407;-49
2021/03/21 05:13:55;;;;;;;14.90;7.75;;;;;;;-1.94;83.47;99439.25;3552803;27;20042;-49
2021/03/21 05:15:43;;;;;;;17.30;8.30;;;;;;;-1.94;82.69;99436.72;3552104;27;20042;-49
2021/03/21 05:17:41;;;;;;;18.30;9.00;;;;;;;-1.86;82.99;99443.13;3553037;27;20047;-49
2021/03/21 05:19:29;;;;;;;14.93;6.10;;;;;;;-1.82;82.64;99438.19;3554096;27;20057;-49
2021/03/21 05:21:19;;;;;;;14.80;7.13;;;;;;;-1.77;82.79;99439.34;3550707;27;20516;-49
2021/03/21 05:23:16;;;;;;;19.80;9.13;;;;;;;-1.73;82.77;99438.75;3553565;27;20061;-52
2021/03/21 05:25:01;;;;;;;13.75;7.18;;;;;;;-1.65;82.38;99442.63;3554286;27;20127;-49
2021/03/21 05:26:49;;;;;;;16.27;8.38;;;;;;;-1.64;82.08;99438.44;3551741;27;20061;-49
2021/03/21 05:28:45;;;;;;;14.43;7.25;;;;;;;-1.63;82.05;99438.53;3554143;27;20507;-50
2021/03/21 05:30:29;;;;;;;18.60;8.90;;;;;;;-1.61;82.18;99436.03;3552072;27;20053;-50
2021/03/21 05:32:12;;;;;;;18.40;7.95;;;;;;;-1.55;82.45;99438.94;3551623;27;20065;-50
2021/03/21 05:33:54;;;;;;;15.60;8.32;;;;;;;-1.48;81.86;99435.97;3553432;27;20359;-49
2021/03/21 05:35:39;;;;;;;13.50;7.22;;;;;;;-1.47;81.54;99442.81;3552593;27;20526;-49
2021/03/21 05:37:29;;;;;;;16.80;8.35;;;;;;;-1.48;81.16;99434.28;3554149;27;20135;-49
2021/03/21 05:39:21;;;;;;;12.80;7.00;;;;;;;-1.46;81.33;99431.84;3550634;27;20452;-52
2021/03/21 05:41:51;;;;;;;12.50;6.82;;;;;;;-1.48;80.61;99439.38;3552954;27;20077;-49
2021/03/21 05:43:58;;;;;;;16.60;8.18;;;;;;;-1.49;81.12;99437.66;3518064;28;20396;-48
2021/03/21 05:46:17;;;;;;;16.08;7.85;;;;;;;-1.52;81.25;99434.06;3552235;27;20054;-48
2021/03/21 05:48:25;;;;;;;19.70;8.05;;;;;;;-1.50;81.11;99451.13;3540718;27;20503;-48
2021/03/21 05:50:42;;;;;;;17.73;8.55;;;;;;;-1.48;81.18;99430.88;3550720;27;20043;-49
2021/03/21 05:52:52;;;;;;;18.67;9.10;;;;;;;-1.45;80.94;99441.25;3539518;28;20462;-50
2021/03/21 05:55:14;;;;;;;13.75;7.13;;;;;;;-1.40;81.20;99442.38;3551952;27;20050;-48
2021/03/21 05:57:35;;;;;;;21.45;9.63;;;;;;;-1.37;81.19;99442.53;3550320;27;20081;-51
2021/03/21 05:59:37;;;;;;;18.67;8.52;;;;;;;-1.35;81.25;99442.63;3550372;27;20107;-51
2021/03/21 06:02:19;;;;;;;19.35;9.45;;;;;;;-1.35;80.85;99438.44;3553763;27;20047;-49
2021/03/21 06:04:35;;;;;;;20.92;10.13;;;;;;;-1.36;80.69;99443.44;3502860;28;20048;-48
2021/03/21 06:06:57;;;;;;;18.85;9.70;;;;;;;-1.34;81.17;99436.75;3551290;27;20088;-48
2021/03/21 06:08:56;;;;;;;20.92;10.13;;;;;;;-1.27;81.15;99433.78;3550278;27;20107;-49
2021/03/21 06:11:00;;;;;;;23.80;10.45;;;;;;;-1.21;80.43;99435.78;3551496;27;20401;-48
2021/03/21 06:12:44;;;;;;;;;;;;;;;-1.18;79.93;99436.81;3566675;27;20527;-52
2021/03/21 06:14:56;;;;;;;23.52;11.23;;;;;;;-1.12;80.32;99429.56;3550051;27;20453;-48
2021/03/21 06:16:52;;;;;;;21.67;10.25;;;;;;;-1.08;79.57;99425.50;3551709;27;20508;-49
2021/03/21 06:18:47;;;;;;;25.48;9.73;;;;;;;-1.02;80.30;99423.28;3553005;27;20051;-48
2021/03/21 06:21:15;;;;;;;24.45;10.75;;;;;;;-0.90;79.92;99423.09;3549848;27;20050;-52
2021/03/21 06:23:30;;;;;;;26.98;11.95;;;;;;;-0.80;78.25;99412.63;3551594;27;20074;-49
2021/03/21 06:25:44;;;;;;;27.65;10.80;;;;;;;-0.75;77.24;99416.31;3513101;27;20115;-51
2021/03/21 06:27:54;;;;;;;18.88;8.98;;;;;;;-0.67;77.60;99426.03;3552527;27;20054;-55
2021/03/21 06:30:05;;;;;;;23.88;11.00;;;;;;;-0.66;76.63;99418.47;3550237;27;20051;-55
2021/03/21 06:32:11;;;;;;;19.52;9.45;;;;;;;-0.65;76.04;99412.56;3549910;27;20042;-55
2021/03/21 06:34:03;;;;;;;21.80;9.32;;;;;;;-0.67;75.80;99410.75;3553317;27;20049;-54
2021/03/21 06:36:04;;;;;;;25.70;11.70;;;;;;;-0.69;76.58;99407.22;3550427;27;20046;-55
2021/03/21 06:38:27;;;;;;;28.55;13.20;;;;;;;-0.72;76.09;99402.84;3550654;27;20042;-55
2021/03/21 06:40:35;;;;;;;27.13;14.52;;;;;;;-0.76;76.42;99406.91;3482104;28;20048;-54
2021/03/21 06:42:44;;;;;;;24.83;11.88;;;;;;;-0.73;76.76;99399.44;3538259;27;20046;-55
2021/03/21 06:44:48;;;;;;;22.20;11.65;;;;;;;-0.66;75.75;99384.47;3552075;27;20042;-55
2021/03/21 06:46:59;;;;;;;21.63;10.30;;;;;;;-0.60;75.48;99384.81;3552248;27;20062;-54
2021/03/21 06:49:21;;;;;;;25.30;12.18;;;;;;;-0.64;74.84;99380.31;3508870;28;20051;-54
2021/03/21 06:51:14;;;;;;;27.42;13.30;;;;;;;-0.67;75.93;99377.63;3551219;27;20426;-54
2021/03/21 06:53:03;;;;;;;26.05;12.52;;;;;;;-0.69;75.63;99374.09;3549574;27;20039;-52
2021/03/21 06:54:55;;;;;;;29.90;12.50;;;;;;;-0.73;75.96;99380.69;3553345;27;20107;-54
2021/03/21 06:57:19;;;;;;;27.23;13.45;;;;;;;-0.76;76.23;99372.91;3550013;27;20103;-54
2021/03/21 06:59:26;;;;;;;27.13;11.50;;;;;;;-0.76;76.31;99383.09;3551732;27;20045;-52
2021/03/21 07:01:27;;;;;;;35.45;14.32;;;;;;;-0.76;76.85;99385.66;3541402;27;20392;-54
2021/03/21 07:03:58;;;;;;;29.58;14.40;;;;;;;-0.82;76.11;99373.44;3566177;27;20137;-51
2021/03/21 07:06:14;;;;;;;26.25;11.18;;;;;;;-0.77;75.62;99374.56;3551170;27;20047;-51
2021/03/21 07:08:36;;;;;;;36.08;17.10;;;;;;;-0.70;75.15;99367.28;3549385;27;20074;-53
2021/03/21 07:10:52;;;;;;;35.67;16.10;;;;;;;-0.62;74.44;99366.88;3549958;27;20070;-57
2021/03/21 07:13:19;;;;;;;30.88;13.80;;;;;;;-0.50;74.06;99366.66;3538848;28;20051;-57
2021/03/21 07:15:41;;;;;;;28.65;13.00;;;;;;;-0.36;72.27;99354.63;3514907;27;20500;-57
2021/03/21 07:17:56;;;;;;;26.55;13.02;;;;;;;-0.28;71.18;99353.34;3549013;27;20523;-56
2021/03/21 07:20:24;;;;;;;31.65;14.15;;;;;;;-0.00;71.00;99344.56;3549307;27;20074;-56
2021/03/21 07:22:48;;;;;;;29.80;12.65;;;;;;;0.29;68.91;99353.66;3552063;27;20077;-57
2021/03/21 07:25:12;;;;;;;33.80;13.05;;;;;;;0.35;67.70;99345.44;3538185;27;20055;-56
2021/03/21 07:27:17;;;;;;;27.33;12.50;;;;;;;0.33;68.46;99342.81;3565687;27;20054;-56
2021/03/21 07:29:41;;;;;;;30.00;13.80;;;;;;;0.19;66.51;99338.72;3550343;27;20090;-56
2021/03/21 07:32:07;;;;;;;26.52;12.20;;;;;;;0.06;67.10;99328.69;3549069;27;20415;-51
2021/03/21 07:34:08;;;;;;;28.70;13.18;;;;;;;0.02;67.08;99325.13;3548113;27;20047;-51
2021/03/21 07:36:26;;;;;;;29.92;12.77;;;;;;;0.00;67.08;99327.59;3552092;27;20563;-49
2021/03/21 07:38:20;;;;;;;26.90;12.75;;;;;;;-0.02;67.25;99321.53;3551872;27;20054;-49
2021/03/21 07:40:26;;;;;;;30.60;13.98;;;;;;;-0.04;67.11;99319.69;3550474;27;20415;-50
2021/03/21 07:42:26;;;;;;;25.63;12.48;;;;;;;-0.07;65.84;99319.56;3538419;28;20431;-49
2021/03/21 07:44:29;;;;;;;25.85;13.20;;;;;;;-0.12;65.92;99319.31;3549904;27;20089;-50
2021/03/21 07:46:37;;;;;;;27.02;13.02;;;;;;;0.03;65.97;99319.19;3551493;27;20051;-49
2021/03/21 07:48:32;;;;;;;22.20;11.63;;;;;;;0.29;64.69;99305.19;3552284;27;20089;-49
2021/03/21 07:50:28;;;;;;;27.60;12.88;;;;;;;0.54;64.54;99299.59;3550496;27;20047;-49
2021/03/21 07:52:27;;;;;;;25.33;12.60;;;;;;;0.51;63.42;99289.22;3551212;27;20499;-49
2021/03/21 07:54:22;;;;;;;25.35;13.25;;;;;;;0.46;63.11;99297.47;3552665;27;20051;-52
2021/03/21 07:56:08;;;;;;;20.73;9.20;;;;;;;0.40;63.16;99296.38;3552536;27;20050;-49
2021/03/21 07:58:01;;;;;;;27.00;13.02;;;;;;;0.42;63.65;99287.13;3548885;27;20473;-52
2021/03/21 07:59:44;;;;;;;23.02;10.60;;;;;;;0.63;62.89;99277.84;3552375;27;20086;-48
2021/03/21 08:01:26;;;;;;;27.35;12.93;;;;;;;0.86;63.46;99282.34;3549015;27;20642;-54
2021/03/21 08:03:35;;;;;;;27.15;13.27;;;;;;;1.12;60.93;99274.97;3551878;27;20059;-55
2021/03/21 08:05:20;;;;;;;25.73;12.07;;;;;;;1.20;60.12;99270.22;3551430;27;20110;-55
2021/03/21 08:07:23;;;;;;;22.92;11.82;;;;;;;1.17;59.92;99269.25;3548824;27;20074;-53
2021/03/21 08:09:12;;;;;;;24.52;12.27;;;;;;;1.13;60.56;99267.38;3551796;27;20051;-55
2021/03/21 08:11:01;;;;;;;22.90;10.05;;;;;;;1.03;58.13;99272.88;3550091;27;20531;-54
2021/03/21 08:12:50;;;;;;;22.67;11.40;;;;;;;0.87;59.96;99260.22;3550507;27;20119;-51
2021/03/21 08:14:33;;;;;;;21.55;9.95;;;;;;;0.73;59.69;99263.00;3550899;27;20482;-50
2021/03/21 08:16:17;;;;;;;27.40;12.27;;;;;;;0.64;60.24;99259.19;3548676;27;20503;-50
2021/03/21 08:18:01;;;;;;;23.02;11.82;;;;;;;0.58;60.44;99265.75;3551755;27;20464;-50
2021/03/21 08:19:43;;;;;;;20.73;10.27;;;;;;;0.50;60.38;99251.75;3549245;27;20530;-50
2021/03/21 08:21:28;;;;;;;28.85;12.70;;;;;;;0.56;61.40;99263.91;3550857;27;20043;-52
2021/03/21 08:23:13;;;;;;;27.58;11.32;;;;;;;0.58;60.83;99250.44;3550902;27;20058;-49
2021/03/21 08:25:08;;;;;;;25.73;11.75;;;;;;;0.69;62.32;99240.72;3548748;27;20043;-51
2021/03/21 08:26:50;;;;;;;30.27;12.80;;;;;;;0.89;61.27;99243.28;3551699;27;20457;-51
2021/03/21 08:28:37;;;;;;;24.75;11.63;;;;;;;1.07;60.22;99238.13;3549303;27;20070;-50
2021/03/21 08:30:21;;;;;;;25.85;12.88;;;;;;;1.28;61.15;99228.88;3553912;27;20043;-50
2021/03/21 08:32:08;;;;;;;25.38;10.77;;;;;;;1.51;58.65;99228.97;3553919;27;20422;-51
2021/03/21 08:33:50;;;;;;;29.02;13.35;;;;;;;1.77;59.92;99230.06;3551172;27;20047;-51
2021/03/21 08:35:34;;;;;;;25.85;12.25;;;;;;;1.99;58.62;99225.81;3554788;27;20047;-54
2021/03/21 08:37:21;;;;;;;;;;;;;;;2.10;58.14;99219.47;3551663;27;20042;-50
2021/03/21 08:39:06;;;;;;;25.35;12.27;;;;;;;2.12;58.00;99208.47;3552936;27;19954;-51
2021/03/21 08:40:48;;;;;;;17.77;8.18;;;;;;;2.21;57.00;99215.63;3553102;27;20046;-54